createdAt,value
2023-02-12T00:01:38.151Z,0.98
2023-02-12T00:04:44.149Z,0.94
2023-02-12T00:07:49.726Z,0.86
2023-02-12T00:10:55.602Z,0.80
2023-02-12T00:14:03.428Z,1.01
2023-02-12T00:17:09.122Z,0.88
2023-02-12T00:20:14.773Z,0.74
2023-02-12T00:23:20.408Z,0.89
2023-02-12T00:26:26.020Z,0.76
2023-02-12T00:29:31.566Z,0.80
2023-02-12T00:32:37.574Z,0.82
2023-02-12T00:35:43.335Z,0.68
2023-02-12T00:38:52.169Z,0.64
2023-02-12T00:41:57.565Z,0.87
2023-02-12T00:45:03.048Z,0.72
2023-02-12T00:48:10.278Z,0.42
2023-02-12T00:51:16.112Z,0.45
2023-02-12T00:54:22.136Z,0.40
2023-02-12T00:57:27.822Z,0.20
2023-02-12T01:00:35.255Z,0.38
2023-02-12T01:03:41.676Z,0.03
2023-02-12T01:06:47.357Z,0.16
2023-02-12T01:09:52.988Z,0.36
2023-02-12T01:12:58.502Z,0.35
2023-02-12T01:16:20.433Z,0.18
2023-02-12T01:19:26.002Z,-0.23
2023-02-12T01:22:31.779Z,-0.41
2023-02-12T01:25:38.967Z,-0.25
2023-02-12T01:28:48.727Z,-0.01
2023-02-12T01:31:54.768Z,-0.06
2023-02-12T01:35:00.570Z,0.17
2023-02-12T01:38:05.949Z,-0.25
2023-02-12T01:41:15.537Z,-0.24
2023-02-12T01:44:29.246Z,-0.12
2023-02-12T01:47:35.312Z,-0.01
2023-02-12T01:50:44.507Z,-0.04
2023-02-12T01:53:55.691Z,0.01
2023-02-12T01:57:03.385Z,0.03
2023-02-12T02:00:21.047Z,-0.08
2023-02-12T02:03:27.064Z,-0.23
2023-02-12T02:06:36.684Z,-0.18
2023-02-12T02:09:42.705Z,-0.32
2023-02-12T02:13:07.556Z,-0.16
2023-02-12T02:16:23.767Z,-0.07
2023-02-12T02:20:01.935Z,-0.34
2023-02-12T02:23:42.225Z,-0.66
2023-02-12T02:27:11.978Z,-0.82
2023-02-12T02:30:26.239Z,-0.35
2023-02-12T02:34:02.583Z,-0.32
2023-02-12T02:37:40.237Z,-0.31
2023-02-12T02:41:09.813Z,-0.65
2023-02-12T02:44:23.911Z,-0.61
2023-02-12T02:47:54.061Z,-0.78
2023-02-12T02:51:07.877Z,-1.19
2023-02-12T02:54:31.238Z,-1.35
2023-02-12T02:57:47.600Z,-1.17
2023-02-12T03:01:02.263Z,-0.73
2023-02-12T03:04:18.939Z,-1.01
2023-02-12T03:07:35.152Z,-0.67
2023-02-12T03:10:49.284Z,-0.69
2023-02-12T03:14:06.931Z,-0.77
2023-02-12T03:17:35.268Z,-0.61
2023-02-12T03:20:46.358Z,-0.55
2023-02-12T03:24:05.391Z,-0.49
2023-02-12T03:27:27.235Z,-0.49
2023-02-12T03:30:58.623Z,-0.55
2023-02-12T03:34:24.603Z,-0.70
2023-02-12T03:37:30.049Z,-0.68
2023-02-12T03:40:40.968Z,-0.84
2023-02-12T03:44:27.471Z,-0.49
2023-02-12T03:47:45.654Z,-0.49
2023-02-12T03:50:59.201Z,-0.42
2023-02-12T03:54:07.975Z,-0.63
2023-02-12T03:57:21.953Z,-0.61
2023-02-12T04:00:28.510Z,-0.73
2023-02-12T04:03:34.240Z,-0.65
2023-02-12T04:06:40.547Z,-0.98
2023-02-12T04:09:46.279Z,-0.56
2023-02-12T04:13:21.654Z,-0.67
2023-02-12T04:16:37.984Z,-1.02
2023-02-12T04:20:08.994Z,-0.61
2023-02-12T04:23:18.354Z,-0.68
2023-02-12T04:26:42.343Z,-0.72
2023-02-12T04:30:06.167Z,-0.69
2023-02-12T04:33:19.258Z,-0.74
2023-02-12T04:36:33.234Z,-0.92
2023-02-12T04:39:41.461Z,-0.82
2023-02-12T04:42:49.704Z,-0.89
2023-02-12T04:45:55.623Z,-0.66
2023-02-12T04:49:01.466Z,-0.70
2023-02-12T04:52:07.714Z,-0.71
2023-02-12T04:55:13.076Z,-0.68
2023-02-12T04:58:19.257Z,-0.63
2023-02-12T05:01:25.180Z,-0.73
2023-02-12T05:04:30.740Z,-0.77
2023-02-12T05:07:36.283Z,-1.04
2023-02-12T05:10:41.863Z,-0.94
2023-02-12T05:13:53.906Z,-0.97
2023-02-12T05:16:59.023Z,-1.21
2023-02-12T05:20:05.617Z,-1.86
2023-02-12T05:23:11.351Z,-1.62
2023-02-12T05:26:20.803Z,-1.33
2023-02-12T05:29:26.391Z,-1.29
2023-02-12T05:32:32.028Z,-1.20
2023-02-12T05:35:37.852Z,-0.98
2023-02-12T05:38:43.861Z,-0.92
2023-02-12T05:41:49.270Z,-0.91
2023-02-12T05:44:54.816Z,-0.94
2023-02-12T05:48:00.659Z,-0.87
2023-02-12T05:51:27.658Z,-0.90
2023-02-12T05:54:33.091Z,-1.03
2023-02-12T05:57:38.362Z,-1.08
2023-02-12T06:00:43.802Z,-0.91
2023-02-12T06:03:49.087Z,-1.03
2023-02-12T06:06:56.007Z,-1.21
2023-02-12T06:10:01.399Z,-0.98
2023-02-12T06:13:06.889Z,-0.87
2023-02-12T06:16:23.441Z,-0.88
2023-02-12T06:19:29.054Z,-1.10
2023-02-12T06:22:34.723Z,-1.52
2023-02-12T06:25:40.245Z,-1.46
2023-02-12T06:28:46.010Z,-1.34
2023-02-12T06:31:51.871Z,-1.39
2023-02-12T06:34:57.534Z,-1.12
2023-02-12T06:38:03.226Z,-1.16
2023-02-12T06:41:09.059Z,-1.18
2023-02-12T06:44:14.524Z,-1.06
2023-02-12T06:47:19.899Z,-1.01
2023-02-12T06:50:25.564Z,-0.85
2023-02-12T06:53:30.690Z,-0.95
2023-02-12T06:56:37.123Z,-0.83
2023-02-12T06:59:42.560Z,-0.94
2023-02-12T07:02:54.460Z,-1.04
2023-02-12T07:06:00.297Z,-0.63
2023-02-12T07:09:06.528Z,-0.68
2023-02-12T07:12:12.179Z,-0.45
2023-02-12T07:15:17.659Z,-0.42
2023-02-12T07:18:23.087Z,-0.53
2023-02-12T07:21:28.355Z,-0.29
2023-02-12T07:24:33.419Z,-0.35
2023-02-12T07:27:38.734Z,-0.17
2023-02-12T07:30:43.945Z,-0.38
2023-02-12T07:33:53.856Z,-0.09
2023-02-12T07:36:59.337Z,0.13
2023-02-12T07:40:05.231Z,0.11
2023-02-12T07:43:10.869Z,0.18
2023-02-12T07:46:23.009Z,0.16
2023-02-12T07:49:28.741Z,0.25
2023-02-12T07:52:34.470Z,0.54
2023-02-12T07:55:40.080Z,0.59
2023-02-12T07:58:48.269Z,0.85
2023-02-12T08:01:53.978Z,0.92
2023-02-12T08:04:59.709Z,1.13
2023-02-12T08:08:04.876Z,1.20
2023-02-12T08:11:11.743Z,1.31
2023-02-12T08:14:20.070Z,1.42
2023-02-12T08:17:25.679Z,1.37
2023-02-12T08:20:30.794Z,1.44
2023-02-12T08:23:35.990Z,1.54
2023-02-12T08:26:41.456Z,1.56
2023-02-12T08:29:47.589Z,1.67
2023-02-12T08:32:53.002Z,1.82
2023-02-12T08:36:10.292Z,1.90
2023-02-12T08:39:16.809Z,1.95
2023-02-12T08:42:23.310Z,2.10
2023-02-12T08:45:28.717Z,2.07
2023-02-12T08:48:34.692Z,2.21
2023-02-12T08:51:43.896Z,2.32
2023-02-12T08:54:49.437Z,2.38
2023-02-12T08:57:58.157Z,2.40
2023-02-12T09:01:05.735Z,2.43
2023-02-12T09:04:18.397Z,2.56
2023-02-12T09:07:23.834Z,2.72
2023-02-12T09:10:29.275Z,2.74
2023-02-12T09:13:34.953Z,2.91
2023-02-12T09:16:40.763Z,3.12
2023-02-12T09:19:46.252Z,3.24
2023-02-12T09:22:51.884Z,3.38
2023-02-12T09:25:57.864Z,3.48
2023-02-12T09:29:04.416Z,3.66
2023-02-12T09:32:10.853Z,3.80
2023-02-12T09:35:16.316Z,3.83
2023-02-12T09:38:21.997Z,3.99
2023-02-12T09:41:44.335Z,4.16
2023-02-12T09:45:08.132Z,4.28
2023-02-12T09:48:35.515Z,4.41
2023-02-12T09:51:44.476Z,4.45
2023-02-12T09:54:50.784Z,4.59
2023-02-12T09:57:56.120Z,4.74
2023-02-12T10:01:05.758Z,4.89
2023-02-12T10:04:12.133Z,5.05
2023-02-12T10:07:17.536Z,5.22
2023-02-12T10:10:40.619Z,5.31
2023-02-12T10:14:20.027Z,5.37
2023-02-12T10:17:42.508Z,5.52
2023-02-12T10:21:13.261Z,5.69
2023-02-12T10:24:43.500Z,5.89
2023-02-12T10:27:56.425Z,5.91
2023-02-12T10:31:13.375Z,5.95
2023-02-12T10:34:22.999Z,6.10
2023-02-12T10:37:55.622Z,6.21
2023-02-12T10:41:02.971Z,6.39
2023-02-12T10:44:11.037Z,6.57
2023-02-12T10:47:22.046Z,6.66
2023-02-12T10:51:12.697Z,6.72
2023-02-12T10:54:42.910Z,6.87
2023-02-12T10:57:48.237Z,7.24
2023-02-12T11:01:00.136Z,7.10
2023-02-12T11:04:23.617Z,7.23
2023-02-12T11:07:29.619Z,7.32
2023-02-12T11:10:42.332Z,7.45
2023-02-12T11:14:04.793Z,7.47
2023-02-12T11:17:52.263Z,7.71
2023-02-12T11:21:01.461Z,7.51
2023-02-12T11:24:35.832Z,7.61
2023-02-12T11:27:42.205Z,7.69
2023-02-12T11:30:58.705Z,7.88
2023-02-12T11:34:10.811Z,7.95
2023-02-12T11:37:20.188Z,7.93
2023-02-12T11:40:36.318Z,8.07
2023-02-12T11:43:41.848Z,8.11
2023-02-12T11:46:55.773Z,8.28
2023-02-12T11:50:26.703Z,8.33
2023-02-12T11:53:40.543Z,8.50
2023-02-12T11:56:47.301Z,8.53
2023-02-12T11:59:54.553Z,8.73
2023-02-12T12:03:47.863Z,8.76
2023-02-12T12:07:03.851Z,8.67
2023-02-12T12:11:11.200Z,8.80
2023-02-12T12:14:24.899Z,8.74
2023-02-12T12:18:02.724Z,8.81
2023-02-12T12:21:30.989Z,8.88
2023-02-12T12:24:56.855Z,8.91
2023-02-12T12:28:29.256Z,9.07
2023-02-12T12:31:44.830Z,9.05
2023-02-12T12:34:50.344Z,9.21
2023-02-12T12:38:05.334Z,9.33
2023-02-12T12:41:34.707Z,9.36
2023-02-12T12:44:42.662Z,9.35
2023-02-12T12:48:12.289Z,9.44
2023-02-12T12:51:23.592Z,9.59
2023-02-12T12:54:45.392Z,9.50
2023-02-12T12:58:04.940Z,9.58
2023-02-12T13:01:37.770Z,9.71
2023-02-12T13:04:51.675Z,9.76
2023-02-12T13:08:07.135Z,9.95
2023-02-12T13:11:44.700Z,9.98
2023-02-12T13:15:13.401Z,9.96
2023-02-12T13:18:41.862Z,9.97
2023-02-12T13:22:17.554Z,10.13
2023-02-12T13:25:31.275Z,10.15
2023-02-12T13:28:55.360Z,10.22
2023-02-12T13:32:15.619Z,10.14
2023-02-12T13:35:26.539Z,10.48
2023-02-12T13:39:10.315Z,10.53
2023-02-12T13:42:51.297Z,10.42
2023-02-12T13:46:04.469Z,10.41
2023-02-12T13:49:34.141Z,10.59
2023-02-12T13:52:57.845Z,10.65
2023-02-12T13:56:09.424Z,10.85
2023-02-12T13:59:35.841Z,10.83
2023-02-12T14:02:43.980Z,10.97
2023-02-12T14:05:49.482Z,10.78
2023-02-12T14:09:10.324Z,10.61
2023-02-12T14:12:24.836Z,10.58
2023-02-12T14:15:36.577Z,10.61
2023-02-12T14:18:41.836Z,10.90
2023-02-12T14:21:47.110Z,10.91
2023-02-12T14:24:57.338Z,10.67
2023-02-12T14:28:43.823Z,10.86
2023-02-12T14:31:49.697Z,10.80
2023-02-12T14:34:55.222Z,10.80
2023-02-12T14:38:04.168Z,10.88
2023-02-12T14:41:38.791Z,10.80
2023-02-12T14:44:56.394Z,10.73
2023-02-12T14:48:03.287Z,10.78
2023-02-12T14:51:17.993Z,10.67
2023-02-12T14:54:57.852Z,10.71
2023-02-12T14:58:18.184Z,10.58
2023-02-12T15:01:34.173Z,10.63
2023-02-12T15:04:45.441Z,10.49
2023-02-12T15:07:59.005Z,10.54
2023-02-12T15:11:15.252Z,10.50
2023-02-12T15:14:46.261Z,10.60
2023-02-12T15:18:00.722Z,10.60
2023-02-12T15:21:25.138Z,10.57
2023-02-12T15:24:30.650Z,10.49
2023-02-12T15:27:36.169Z,10.37
2023-02-12T15:30:43.531Z,10.31
2023-02-12T15:33:52.467Z,10.37
2023-02-12T15:36:59.946Z,10.28
2023-02-12T15:40:09.801Z,10.18
2023-02-12T15:43:19.498Z,10.08
2023-02-12T15:46:25.279Z,10.09
2023-02-12T15:49:36.803Z,10.08
2023-02-12T15:52:46.021Z,9.95
2023-02-12T15:55:52.494Z,9.86
2023-02-12T15:59:01.195Z,9.75
2023-02-12T16:02:21.540Z,9.68
2023-02-12T16:05:27.595Z,9.58
2023-02-12T16:08:36.158Z,9.54
2023-02-12T16:11:44.608Z,9.47
2023-02-12T16:14:55.916Z,9.37
2023-02-12T16:18:04.531Z,9.26
2023-02-12T16:21:18.783Z,9.19
2023-02-12T16:24:34.060Z,9.06
2023-02-12T16:27:40.640Z,8.90
2023-02-12T16:30:48.648Z,8.83
2023-02-12T16:33:59.641Z,8.72
2023-02-12T16:37:45.559Z,8.65
2023-02-12T16:41:09.367Z,8.55
2023-02-12T16:44:17.202Z,8.42
2023-02-12T16:47:25.153Z,8.36
2023-02-12T16:50:32.743Z,8.22
2023-02-12T16:53:43.955Z,8.16
2023-02-12T16:56:49.992Z,8.12
2023-02-12T16:59:55.378Z,7.98
2023-02-12T17:03:00.982Z,7.93
2023-02-12T17:06:06.382Z,7.90
2023-02-12T17:09:12.174Z,7.80
2023-02-12T17:12:17.940Z,7.65
2023-02-12T17:15:38.455Z,7.69
2023-02-12T17:18:44.521Z,7.67
2023-02-12T17:21:51.394Z,7.57
2023-02-12T17:24:57.245Z,7.43
2023-02-12T17:28:02.870Z,7.45
2023-02-12T17:31:09.595Z,7.20
2023-02-12T17:34:16.705Z,7.18
2023-02-12T17:37:22.579Z,7.07
2023-02-12T17:40:27.779Z,6.96
2023-02-12T17:43:33.071Z,6.93
2023-02-12T17:46:39.331Z,7.02
2023-02-12T17:49:44.585Z,7.01
2023-02-12T17:52:50.159Z,6.93
2023-02-12T17:55:55.507Z,6.91
2023-02-12T17:59:01.355Z,6.76
2023-02-12T18:02:12.608Z,6.64
2023-02-12T18:06:39.648Z,6.68
2023-02-12T18:09:45.540Z,6.49
2023-02-12T18:12:51.220Z,6.39
2023-02-12T18:15:56.585Z,6.33
2023-02-12T18:19:04.889Z,6.21
2023-02-12T18:22:10.564Z,6.05
2023-02-12T18:25:18.098Z,6.04
2023-02-12T18:28:24.898Z,6.01
2023-02-12T18:31:30.528Z,6.01
2023-02-12T18:34:36.128Z,5.92
2023-02-12T18:37:43.337Z,5.86
2023-02-12T18:40:49.077Z,5.83
2023-02-12T18:43:56.466Z,5.76
2023-02-12T18:47:02.164Z,5.66
2023-02-12T18:50:08.609Z,5.54
2023-02-12T18:53:14.682Z,5.52
2023-02-12T18:56:20.411Z,5.54
2023-02-12T18:59:27.399Z,5.61
2023-02-12T19:02:33.013Z,5.65
2023-02-12T19:05:38.452Z,5.57
2023-02-12T19:08:43.871Z,5.54
2023-02-12T19:11:51.126Z,5.48
2023-02-12T19:14:56.556Z,5.50
2023-02-12T19:18:02.208Z,5.50
2023-02-12T19:21:12.981Z,5.54
2023-02-12T19:24:18.320Z,5.50
2023-02-12T19:27:23.819Z,5.64
2023-02-12T19:30:30.779Z,5.62
2023-02-12T19:33:37.329Z,5.70
2023-02-12T19:36:43.591Z,5.71
2023-02-12T19:39:49.232Z,5.73
2023-02-12T19:42:54.693Z,5.65
2023-02-12T19:46:09.911Z,5.64
2023-02-12T19:49:24.492Z,5.63
2023-02-12T19:52:29.431Z,5.53
2023-02-12T19:55:36.077Z,5.47
2023-02-12T19:58:41.622Z,5.40
2023-02-12T20:01:48.509Z,5.43
2023-02-12T20:04:54.005Z,5.30
2023-02-12T20:07:59.776Z,5.20
2023-02-12T20:11:11.589Z,5.18
2023-02-12T20:14:17.870Z,5.13
2023-02-12T20:17:23.425Z,5.01
2023-02-12T20:20:29.582Z,5.04
2023-02-12T20:23:35.775Z,5.01
2023-02-12T20:26:42.425Z,4.95
2023-02-12T20:29:48.320Z,4.89
2023-02-12T20:32:54.313Z,4.96
2023-02-12T20:35:59.824Z,4.96
2023-02-12T20:39:07.740Z,4.94
2023-02-12T20:42:14.247Z,4.92
2023-02-12T20:45:20.232Z,4.85
2023-02-12T20:48:26.182Z,4.79
2023-02-12T20:51:31.669Z,4.79
2023-02-12T20:54:38.390Z,4.84
2023-02-12T20:57:45.157Z,4.81
2023-02-12T21:00:51.768Z,4.92
2023-02-12T21:03:58.081Z,4.85
2023-02-12T21:07:04.816Z,4.73
2023-02-12T21:10:11.815Z,4.76
2023-02-12T21:13:17.472Z,4.72
2023-02-12T21:16:31.486Z,4.75
2023-02-12T21:19:37.935Z,4.70
2023-02-12T21:22:43.807Z,4.70
2023-02-12T21:25:49.310Z,4.66
2023-02-12T21:28:57.957Z,4.63
2023-02-12T21:32:03.981Z,4.60
2023-02-12T21:35:09.581Z,4.48
2023-02-12T21:38:14.995Z,4.45
2023-02-12T21:41:24.608Z,4.39
2023-02-12T21:44:33.128Z,4.33
2023-02-12T21:47:39.024Z,4.46
2023-02-12T21:50:44.347Z,4.36
2023-02-12T21:53:51.724Z,4.24
2023-02-12T21:56:57.165Z,4.23
2023-02-12T22:00:02.414Z,4.08
2023-02-12T22:03:19.738Z,4.09
2023-02-12T22:06:26.125Z,4.10
2023-02-12T22:09:32.176Z,3.97
2023-02-12T22:12:37.500Z,3.98
2023-02-12T22:15:42.580Z,3.91
2023-02-12T22:18:49.346Z,3.84
2023-02-12T22:21:54.834Z,3.68
2023-02-12T22:25:00.078Z,3.81
2023-02-12T22:28:05.873Z,3.73
2023-02-12T22:31:13.481Z,3.69
2023-02-12T22:34:19.226Z,3.72
2023-02-12T22:37:24.770Z,3.62
2023-02-12T22:40:30.075Z,3.60
2023-02-12T22:43:37.308Z,3.55
2023-02-12T22:46:43.402Z,3.63
2023-02-12T22:49:48.497Z,3.53
2023-02-12T22:52:54.144Z,3.55
2023-02-12T22:56:03.390Z,3.72
2023-02-12T22:59:11.660Z,3.62
2023-02-12T23:02:16.862Z,3.77
2023-02-12T23:05:22.105Z,3.81
2023-02-12T23:08:27.564Z,3.74
2023-02-12T23:11:33.748Z,3.82
2023-02-12T23:14:39.705Z,3.83
2023-02-12T23:17:44.878Z,3.75
2023-02-12T23:20:52.119Z,3.85
2023-02-12T23:23:59.339Z,3.75
2023-02-12T23:27:04.570Z,3.72
2023-02-12T23:30:10.308Z,3.67
2023-02-12T23:33:15.949Z,3.55
2023-02-12T23:36:21.632Z,3.63
2023-02-12T23:39:26.890Z,3.78
2023-02-12T23:42:32.227Z,3.78
2023-02-12T23:45:37.694Z,3.77
2023-02-12T23:48:44.874Z,3.59
2023-02-12T23:51:50.441Z,3.41
2023-02-12T23:54:57.005Z,3.47
2023-02-12T23:58:03.563Z,3.41
